PGT464W LTFJ-UGTB
Flight info
| Callsign | PGT464W |
|---|---|
| Flight time | 1h 42m |
| Altitude | 35000 |
| Route | VICEN T380 ASMAP L333 RIPNU UL333 LATGA UT363 ESB UT364 ILHAN UW71 TBN UN61 NOLGA N61 LAGAS |
| Aircraft | A320/M-VGDW/C |
Departure
| Time | 2026-04-14 07:48 |
|---|---|
| Airport | Istanbul Sabiha Gökçen International Airport (LTFJ) |
Arrival
| Time | 2026-04-14 09:30 |
|---|---|
| Airport | Tbilisi International Airport (UGTB) |
| Time | Latitude | Longitude | Altitude | Speed | Heading |
|---|---|---|---|---|---|
| 2026-04-14 07:02 | 40.90631 | 29.32174 | 321 ft | 0 kts | 154° |
| 2026-04-14 07:35 | 40.90636 | 29.32171 | 321 ft | 4 kts | 154° |
| 2026-04-14 07:36 | 40.90661 | 29.32157 | 320 ft | 4 kts | 161° |
| 2026-04-14 07:36 | 40.90687 | 29.32148 | 320 ft | 4 kts | 177° |
| 2026-04-14 07:36 | 40.90711 | 29.32153 | 320 ft | 4 kts | 232° |
| 2026-04-14 07:36 | 40.90716 | 29.32164 | 320 ft | 1 kts | 246° |
| 2026-04-14 07:37 | 40.90716 | 29.32165 | 320 ft | 0 kts | 246° |
| 2026-04-14 07:40 | 40.90713 | 29.32155 | 319 ft | 3 kts | 246° |
| 2026-04-14 07:40 | 40.90700 | 29.32118 | 320 ft | 6 kts | 244° |
| 2026-04-14 07:40 | 40.90680 | 29.32062 | 321 ft | 7 kts | 244° |
| 2026-04-14 07:40 | 40.90657 | 29.32001 | 319 ft | 8 kts | 244° |
| 2026-04-14 07:41 | 40.90636 | 29.31947 | 320 ft | 6 kts | 235° |
| 2026-04-14 07:41 | 40.90596 | 29.31933 | 321 ft | 6 kts | 170° |
| 2026-04-14 07:41 | 40.90562 | 29.31951 | 321 ft | 5 kts | 154° |
| 2026-04-14 07:41 | 40.90536 | 29.31968 | 321 ft | 4 kts | 154° |
| 2026-04-14 07:42 | 40.90495 | 29.31991 | 321 ft | 8 kts | 164° |
| 2026-04-14 07:42 | 40.90451 | 29.31963 | 320 ft | 9 kts | 234° |
| 2026-04-14 07:42 | 40.90416 | 29.31874 | 321 ft | 13 kts | 244° |
| 2026-04-14 07:42 | 40.90371 | 29.31750 | 321 ft | 17 kts | 244° |
| 2026-04-14 07:43 | 40.90312 | 29.31590 | 321 ft | 21 kts | 244° |
| 2026-04-14 07:43 | 40.90243 | 29.31402 | 321 ft | 24 kts | 244° |
| 2026-04-14 07:43 | 40.90164 | 29.31188 | 320 ft | 27 kts | 244° |
| 2026-04-14 07:43 | 40.90077 | 29.30951 | 320 ft | 30 kts | 244° |
| 2026-04-14 07:44 | 40.89987 | 29.30706 | 321 ft | 25 kts | 244° |
| 2026-04-14 07:44 | 40.89911 | 29.30500 | 320 ft | 26 kts | 244° |
| 2026-04-14 07:44 | 40.89828 | 29.30272 | 320 ft | 28 kts | 244° |
| 2026-04-14 07:44 | 40.89741 | 29.30038 | 321 ft | 25 kts | 245° |
| 2026-04-14 07:45 | 40.89675 | 29.29858 | 321 ft | 21 kts | 244° |
| 2026-04-14 07:45 | 40.89608 | 29.29674 | 321 ft | 24 kts | 244° |
| 2026-04-14 07:45 | 40.89553 | 29.29527 | 321 ft | 11 kts | 244° |
| 2026-04-14 07:45 | 40.89522 | 29.29442 | 321 ft | 10 kts | 244° |
| 2026-04-14 07:46 | 40.89495 | 29.29367 | 321 ft | 9 kts | 244° |
| 2026-04-14 07:46 | 40.89464 | 29.29288 | 321 ft | 9 kts | 237° |
| 2026-04-14 07:46 | 40.89412 | 29.29251 | 321 ft | 8 kts | 185° |
| 2026-04-14 07:46 | 40.89363 | 29.29271 | 320 ft | 7 kts | 154° |
| 2026-04-14 07:47 | 40.89320 | 29.29301 | 321 ft | 7 kts | 146° |
| 2026-04-14 07:47 | 40.89297 | 29.29334 | 321 ft | 5 kts | 124° |
| 2026-04-14 07:47 | 40.89287 | 29.29371 | 322 ft | 4 kts | 93° |
| 2026-04-14 07:47 | 40.89301 | 29.29414 | 321 ft | 11 kts | 63° |
| 2026-04-14 07:48 | 40.89397 | 29.29675 | 322 ft | 65 kts | 63° |
| 2026-04-14 07:48 | 40.89689 | 29.30468 | 322 ft | 124 kts | 64° |
| 2026-04-14 07:48 | 40.90132 | 29.31677 | 432 ft | 159 kts | 64° |
| 2026-04-14 07:48 | 40.90602 | 29.32962 | 1178 ft | 154 kts | 65° |
| 2026-04-14 07:49 | 40.91071 | 29.34234 | 1985 ft | 155 kts | 65° |
| 2026-04-14 07:49 | 40.91562 | 29.35571 | 2562 ft | 172 kts | 65° |
| 2026-04-14 07:49 | 40.92111 | 29.37075 | 2889 ft | 193 kts | 66° |
| 2026-04-14 07:49 | 40.92726 | 29.38749 | 3402 ft | 207 kts | 66° |
| 2026-04-14 07:50 | 40.93348 | 29.40507 | 4064 ft | 214 kts | 71° |
| 2026-04-14 07:50 | 40.93548 | 29.42474 | 4663 ft | 221 kts | 97° |
| 2026-04-14 07:50 | 40.93166 | 29.44465 | 5256 ft | 226 kts | 107° |
| 2026-04-14 07:50 | 40.92695 | 29.46530 | 5712 ft | 246 kts | 107° |
| 2026-04-14 07:51 | 40.92168 | 29.48795 | 6116 ft | 270 kts | 107° |
| 2026-04-14 07:51 | 40.91596 | 29.51246 | 6797 ft | 285 kts | 107° |
| 2026-04-14 07:51 | 40.91023 | 29.53789 | 7609 ft | 292 kts | 106° |
| 2026-04-14 07:51 | 40.90459 | 29.56397 | 8442 ft | 298 kts | 105° |
| 2026-04-14 07:52 | 40.89893 | 29.59069 | 9223 ft | 305 kts | 105° |
| 2026-04-14 07:52 | 40.89317 | 29.61802 | 10019 ft | 312 kts | 105° |
| 2026-04-14 07:52 | 40.88720 | 29.64626 | 10486 ft | 330 kts | 105° |
| 2026-04-14 07:52 | 40.88075 | 29.67653 | 10788 ft | 352 kts | 105° |
| 2026-04-14 07:53 | 40.87397 | 29.70818 | 11394 ft | 362 kts | 105° |
| 2026-04-14 07:53 | 40.86699 | 29.74048 | 12118 ft | 368 kts | 106° |
| 2026-04-14 07:53 | 40.85988 | 29.77326 | 12831 ft | 374 kts | 106° |
| 2026-04-14 07:53 | 40.85263 | 29.80653 | 13548 ft | 380 kts | 106° |
| 2026-04-14 07:54 | 40.84527 | 29.84032 | 14232 ft | 385 kts | 106° |
| 2026-04-14 07:54 | 40.83794 | 29.87408 | 14857 ft | 390 kts | 106° |
| 2026-04-14 07:54 | 40.83033 | 29.90918 | 15491 ft | 395 kts | 105° |
| 2026-04-14 07:54 | 40.82272 | 29.94423 | 16120 ft | 399 kts | 105° |
| 2026-04-14 07:55 | 40.81504 | 29.97959 | 16756 ft | 403 kts | 105° |
| 2026-04-14 07:55 | 40.80727 | 30.01534 | 17369 ft | 408 kts | 105° |
| 2026-04-14 07:55 | 40.79950 | 30.05107 | 17979 ft | 412 kts | 105° |
| 2026-04-14 07:55 | 40.79153 | 30.08760 | 18595 ft | 416 kts | 105° |
| 2026-04-14 07:56 | 40.78343 | 30.12449 | 19133 ft | 420 kts | 105° |
| 2026-04-14 07:56 | 40.77524 | 30.16166 | 19677 ft | 424 kts | 105° |
| 2026-04-14 07:56 | 40.76693 | 30.19913 | 20217 ft | 428 kts | 105° |
| 2026-04-14 07:56 | 40.75851 | 30.23698 | 20735 ft | 431 kts | 106° |
| 2026-04-14 07:57 | 40.75005 | 30.27511 | 21247 ft | 435 kts | 106° |
| 2026-04-14 07:57 | 40.74155 | 30.31358 | 21760 ft | 439 kts | 106° |
| 2026-04-14 07:57 | 40.73298 | 30.35234 | 22265 ft | 442 kts | 106° |
| 2026-04-14 07:57 | 40.72419 | 30.39192 | 22769 ft | 446 kts | 106° |
| 2026-04-14 07:58 | 40.71556 | 30.43077 | 23261 ft | 449 kts | 106° |
| 2026-04-14 07:58 | 40.70675 | 30.47040 | 23741 ft | 453 kts | 106° |
| 2026-04-14 07:58 | 40.69783 | 30.51042 | 24148 ft | 457 kts | 106° |
| 2026-04-14 07:58 | 40.68885 | 30.55074 | 24530 ft | 461 kts | 106° |
| 2026-04-14 07:59 | 40.67975 | 30.59138 | 24906 ft | 465 kts | 106° |
| 2026-04-14 07:59 | 40.67052 | 30.63234 | 25274 ft | 469 kts | 106° |
| 2026-04-14 07:59 | 40.66117 | 30.67371 | 25648 ft | 473 kts | 106° |
| 2026-04-14 07:59 | 40.65162 | 30.71586 | 26031 ft | 477 kts | 106° |
| 2026-04-14 08:00 | 40.64222 | 30.75739 | 26401 ft | 481 kts | 106° |
| 2026-04-14 08:00 | 40.63264 | 30.79966 | 26746 ft | 484 kts | 106° |
| 2026-04-14 08:00 | 40.62284 | 30.84284 | 27087 ft | 488 kts | 106° |
| 2026-04-14 08:00 | 40.61309 | 30.88582 | 27406 ft | 492 kts | 106° |
| 2026-04-14 08:01 | 40.60339 | 30.92850 | 27731 ft | 495 kts | 106° |
| 2026-04-14 08:01 | 40.59348 | 30.97205 | 28046 ft | 499 kts | 106° |
| 2026-04-14 08:01 | 40.58346 | 31.01588 | 28382 ft | 502 kts | 106° |
| 2026-04-14 08:01 | 40.57335 | 31.06006 | 28713 ft | 506 kts | 106° |
| 2026-04-14 08:02 | 40.56316 | 31.10446 | 29057 ft | 509 kts | 106° |
| 2026-04-14 08:02 | 40.55286 | 31.14922 | 29396 ft | 513 kts | 106° |
| 2026-04-14 08:02 | 40.54249 | 31.19428 | 29692 ft | 517 kts | 106° |
| 2026-04-14 08:02 | 40.53207 | 31.23959 | 29999 ft | 519 kts | 106° |
| 2026-04-14 08:03 | 40.52157 | 31.28517 | 30302 ft | 523 kts | 106° |
| 2026-04-14 08:03 | 40.51097 | 31.33096 | 30576 ft | 525 kts | 106° |
| 2026-04-14 08:03 | 40.50025 | 31.37701 | 30869 ft | 527 kts | 106° |
| 2026-04-14 08:03 | 40.48933 | 31.42374 | 31154 ft | 529 kts | 106° |
| 2026-04-14 08:04 | 40.47852 | 31.46996 | 31429 ft | 530 kts | 106° |
| 2026-04-14 08:04 | 40.46771 | 31.51625 | 31767 ft | 529 kts | 106° |
| 2026-04-14 08:04 | 40.45693 | 31.56231 | 32196 ft | 527 kts | 106° |
| 2026-04-14 08:04 | 40.44618 | 31.60821 | 32557 ft | 526 kts | 106° |
| 2026-04-14 08:05 | 40.43543 | 31.65398 | 32960 ft | 524 kts | 106° |
| 2026-04-14 08:05 | 40.42482 | 31.69909 | 33365 ft | 523 kts | 106° |
| 2026-04-14 08:05 | 40.41397 | 31.74514 | 33781 ft | 521 kts | 106° |
| 2026-04-14 08:05 | 40.40341 | 31.78983 | 34192 ft | 519 kts | 106° |
| 2026-04-14 08:06 | 40.39272 | 31.83497 | 34586 ft | 517 kts | 106° |
| 2026-04-14 08:06 | 40.38208 | 31.87983 | 34957 ft | 515 kts | 106° |
| 2026-04-14 08:06 | 40.37143 | 31.92456 | 35324 ft | 513 kts | 107° |
| 2026-04-14 08:06 | 40.36084 | 31.96909 | 35701 ft | 511 kts | 107° |
| 2026-04-14 08:07 | 40.35025 | 32.01346 | 36024 ft | 509 kts | 107° |
| 2026-04-14 08:07 | 40.33964 | 32.05773 | 36357 ft | 508 kts | 107° |
| 2026-04-14 08:07 | 40.32914 | 32.10179 | 36677 ft | 506 kts | 107° |
| 2026-04-14 08:07 | 40.31939 | 32.14609 | 36984 ft | 505 kts | 104° |
| 2026-04-14 08:08 | 40.31047 | 32.19051 | 37219 ft | 505 kts | 104° |
| 2026-04-14 08:08 | 40.29389 | 32.27939 | 37254 ft | 501 kts | 103° |
| 2026-04-14 08:09 | 40.27714 | 32.36798 | 37259 ft | 501 kts | 103° |
| 2026-04-14 08:09 | 40.25961 | 32.45612 | 37261 ft | 500 kts | 104° |
| 2026-04-14 08:10 | 40.24175 | 32.54428 | 37257 ft | 500 kts | 102° |
| 2026-04-14 08:10 | 40.23687 | 32.58901 | 37261 ft | 495 kts | 87° |
| 2026-04-14 08:10 | 40.24008 | 32.63336 | 37252 ft | 486 kts | 71° |
| 2026-04-14 08:11 | 40.26140 | 32.71635 | 37246 ft | 480 kts | 64° |
| 2026-04-14 08:11 | 40.28423 | 32.79863 | 37244 ft | 481 kts | 64° |
| 2026-04-14 08:12 | 40.30701 | 32.88098 | 37242 ft | 481 kts | 64° |
| 2026-04-14 08:12 | 40.32966 | 32.96358 | 37251 ft | 482 kts | 64° |
| 2026-04-14 08:13 | 40.35217 | 33.04622 | 37262 ft | 481 kts | 65° |
| 2026-04-14 08:13 | 40.37459 | 33.12883 | 37265 ft | 481 kts | 65° |
| 2026-04-14 08:14 | 40.39690 | 33.21155 | 37267 ft | 480 kts | 65° |
| 2026-04-14 08:14 | 40.41919 | 33.29411 | 37264 ft | 480 kts | 65° |
| 2026-04-14 08:15 | 40.44146 | 33.37655 | 37262 ft | 479 kts | 65° |
| 2026-04-14 08:15 | 40.46365 | 33.45911 | 37261 ft | 479 kts | 65° |
| 2026-04-14 08:16 | 40.48576 | 33.54164 | 37257 ft | 479 kts | 65° |
| 2026-04-14 08:16 | 40.50771 | 33.62421 | 37254 ft | 479 kts | 65° |
| 2026-04-14 08:17 | 40.52966 | 33.70685 | 37257 ft | 479 kts | 65° |
| 2026-04-14 08:17 | 40.55155 | 33.78956 | 37258 ft | 479 kts | 65° |
| 2026-04-14 08:18 | 40.57338 | 33.87228 | 37259 ft | 479 kts | 65° |
| 2026-04-14 08:18 | 40.59513 | 33.95522 | 37262 ft | 479 kts | 65° |
| 2026-04-14 08:19 | 40.61321 | 34.02407 | 37264 ft | 479 kts | 65° |
| 2026-04-14 08:19 | 40.63486 | 34.10690 | 37252 ft | 479 kts | 65° |
| 2026-04-14 08:20 | 40.65640 | 34.18984 | 37248 ft | 478 kts | 65° |
| 2026-04-14 08:20 | 40.67792 | 34.27273 | 37255 ft | 478 kts | 65° |
| 2026-04-14 08:21 | 40.69945 | 34.35564 | 37258 ft | 478 kts | 65° |
| 2026-04-14 08:21 | 40.72090 | 34.43872 | 37256 ft | 479 kts | 65° |
| 2026-04-14 08:22 | 40.74222 | 34.52190 | 37263 ft | 479 kts | 65° |
| 2026-04-14 08:22 | 40.76347 | 34.60512 | 37261 ft | 479 kts | 65° |
| 2026-04-14 08:23 | 40.78474 | 34.68842 | 37263 ft | 479 kts | 65° |
| 2026-04-14 08:23 | 40.80595 | 34.77187 | 37265 ft | 479 kts | 65° |
| 2026-04-14 08:24 | 40.82705 | 34.85533 | 37268 ft | 479 kts | 65° |
| 2026-04-14 08:24 | 40.84821 | 34.93885 | 37277 ft | 480 kts | 65° |
| 2026-04-14 08:25 | 40.86927 | 35.02239 | 37273 ft | 479 kts | 65° |
| 2026-04-14 08:25 | 40.89018 | 35.10603 | 37282 ft | 479 kts | 65° |
| 2026-04-14 08:26 | 40.91107 | 35.18963 | 37288 ft | 479 kts | 65° |
| 2026-04-14 08:26 | 40.93192 | 35.27320 | 37290 ft | 478 kts | 65° |
| 2026-04-14 08:27 | 40.95269 | 35.35688 | 37295 ft | 479 kts | 65° |
| 2026-04-14 08:27 | 40.97339 | 35.44062 | 37290 ft | 478 kts | 66° |
| 2026-04-14 08:28 | 40.99403 | 35.52436 | 37288 ft | 478 kts | 66° |
| 2026-04-14 08:28 | 41.01454 | 35.60810 | 37293 ft | 478 kts | 66° |
| 2026-04-14 08:29 | 41.03505 | 35.69196 | 37295 ft | 479 kts | 66° |
| 2026-04-14 08:29 | 41.05547 | 35.77584 | 37300 ft | 479 kts | 66° |
| 2026-04-14 08:30 | 41.07574 | 35.85927 | 37314 ft | 479 kts | 66° |
| 2026-04-14 08:30 | 41.09619 | 35.94323 | 37323 ft | 478 kts | 65° |
| 2026-04-14 08:31 | 41.11867 | 36.02598 | 37330 ft | 476 kts | 62° |
| 2026-04-14 08:31 | 41.15445 | 36.14873 | 37352 ft | 476 kts | 63° |
| 2026-04-14 08:32 | 41.17773 | 36.23106 | 37358 ft | 477 kts | 63° |
| 2026-04-14 08:32 | 41.20060 | 36.31366 | 37371 ft | 477 kts | 63° |
| 2026-04-14 08:33 | 41.22338 | 36.39632 | 37373 ft | 477 kts | 63° |
| 2026-04-14 08:33 | 41.24620 | 36.47903 | 37378 ft | 477 kts | 63° |
| 2026-04-14 08:34 | 41.26095 | 36.56587 | 37375 ft | 490 kts | 82° |
| 2026-04-14 08:34 | 41.25742 | 36.65705 | 37368 ft | 497 kts | 91° |
| 2026-04-14 08:35 | 41.25115 | 36.74846 | 37367 ft | 497 kts | 91° |
| 2026-04-14 08:35 | 41.24491 | 36.84003 | 37363 ft | 498 kts | 91° |
| 2026-04-14 08:36 | 41.23844 | 36.93163 | 37364 ft | 498 kts | 91° |
| 2026-04-14 08:36 | 41.23176 | 37.02337 | 37366 ft | 499 kts | 91° |
| 2026-04-14 08:37 | 41.22502 | 37.11506 | 37365 ft | 499 kts | 92° |
| 2026-04-14 08:37 | 41.21823 | 37.20682 | 37371 ft | 499 kts | 92° |
| 2026-04-14 08:38 | 41.21130 | 37.29862 | 37370 ft | 500 kts | 92° |
| 2026-04-14 08:38 | 41.20428 | 37.39042 | 37372 ft | 500 kts | 92° |
| 2026-04-14 08:39 | 41.19727 | 37.48220 | 37373 ft | 500 kts | 92° |
| 2026-04-14 08:39 | 41.19018 | 37.57403 | 37377 ft | 500 kts | 92° |
| 2026-04-14 08:40 | 41.18295 | 37.66585 | 37369 ft | 500 kts | 92° |
| 2026-04-14 08:40 | 41.17572 | 37.75756 | 37371 ft | 500 kts | 92° |
| 2026-04-14 08:41 | 41.16842 | 37.84929 | 37380 ft | 500 kts | 92° |
| 2026-04-14 08:41 | 41.16102 | 37.94100 | 37370 ft | 500 kts | 92° |
| 2026-04-14 08:42 | 41.15352 | 38.03270 | 37370 ft | 500 kts | 92° |
| 2026-04-14 08:42 | 41.14595 | 38.12444 | 37367 ft | 500 kts | 92° |
| 2026-04-14 08:43 | 41.13833 | 38.21611 | 37366 ft | 500 kts | 92° |
| 2026-04-14 08:43 | 41.13062 | 38.30767 | 37366 ft | 500 kts | 92° |
| 2026-04-14 08:44 | 41.12292 | 38.39927 | 37365 ft | 500 kts | 93° |
| 2026-04-14 08:44 | 41.11509 | 38.49097 | 37369 ft | 500 kts | 93° |
| 2026-04-14 08:45 | 41.10715 | 38.58262 | 37366 ft | 500 kts | 93° |
| 2026-04-14 08:45 | 41.09918 | 38.67376 | 37369 ft | 500 kts | 93° |
| 2026-04-14 08:46 | 41.09115 | 38.76536 | 37369 ft | 500 kts | 93° |
| 2026-04-14 08:46 | 41.08298 | 38.85700 | 37362 ft | 501 kts | 94° |
| 2026-04-14 08:47 | 41.07475 | 38.94878 | 37350 ft | 502 kts | 94° |
| 2026-04-14 08:47 | 41.06645 | 39.04040 | 37351 ft | 501 kts | 94° |
| 2026-04-14 08:48 | 41.05804 | 39.13203 | 37352 ft | 501 kts | 94° |
| 2026-04-14 08:48 | 41.04962 | 39.22358 | 37351 ft | 500 kts | 94° |
| 2026-04-14 08:49 | 41.04121 | 39.31512 | 37351 ft | 501 kts | 94° |
| 2026-04-14 08:49 | 41.03263 | 39.40665 | 37356 ft | 501 kts | 94° |
| 2026-04-14 08:50 | 41.02400 | 39.49808 | 37354 ft | 500 kts | 95° |
| 2026-04-14 08:50 | 41.01523 | 39.58956 | 37358 ft | 501 kts | 95° |
| 2026-04-14 08:51 | 41.00637 | 39.68115 | 37359 ft | 502 kts | 95° |
| 2026-04-14 08:51 | 40.99857 | 39.77295 | 37363 ft | 500 kts | 88° |
| 2026-04-14 08:52 | 41.00546 | 39.86347 | 37363 ft | 492 kts | 74° |
| 2026-04-14 08:52 | 41.01896 | 39.95234 | 37359 ft | 493 kts | 74° |
| 2026-04-14 08:53 | 41.03224 | 40.04144 | 37354 ft | 493 kts | 75° |
| 2026-04-14 08:53 | 41.04535 | 40.13070 | 37350 ft | 494 kts | 75° |
| 2026-04-14 08:54 | 41.05845 | 40.22002 | 37347 ft | 494 kts | 75° |
| 2026-04-14 08:54 | 41.07161 | 40.30946 | 37348 ft | 495 kts | 75° |
| 2026-04-14 08:55 | 41.08474 | 40.39896 | 37341 ft | 495 kts | 75° |
| 2026-04-14 08:55 | 41.09778 | 40.48845 | 37346 ft | 495 kts | 75° |
| 2026-04-14 08:56 | 41.11056 | 40.57801 | 37346 ft | 495 kts | 76° |
| 2026-04-14 08:56 | 41.12339 | 40.66770 | 37343 ft | 495 kts | 75° |
| 2026-04-14 08:57 | 41.13627 | 40.75735 | 37342 ft | 495 kts | 76° |
| 2026-04-14 08:57 | 41.14904 | 40.84719 | 37345 ft | 496 kts | 76° |
| 2026-04-14 08:58 | 41.16163 | 40.93710 | 37340 ft | 496 kts | 76° |
| 2026-04-14 08:58 | 41.17423 | 41.02706 | 37340 ft | 496 kts | 76° |
| 2026-04-14 08:59 | 41.18683 | 41.11709 | 37345 ft | 496 kts | 76° |
| 2026-04-14 08:59 | 41.19933 | 41.20709 | 37344 ft | 496 kts | 76° |
| 2026-04-14 09:00 | 41.21172 | 41.29717 | 37342 ft | 496 kts | 76° |
| 2026-04-14 09:00 | 41.22193 | 41.37214 | 37346 ft | 496 kts | 76° |
| 2026-04-14 09:01 | 41.23412 | 41.46229 | 37334 ft | 496 kts | 76° |
| 2026-04-14 09:01 | 41.24627 | 41.55231 | 37344 ft | 495 kts | 76° |
| 2026-04-14 09:02 | 41.25845 | 41.64239 | 37329 ft | 494 kts | 77° |
| 2026-04-14 09:02 | 41.27045 | 41.73231 | 37321 ft | 494 kts | 77° |
| 2026-04-14 09:03 | 41.28230 | 41.82237 | 37327 ft | 494 kts | 77° |
| 2026-04-14 09:03 | 41.29417 | 41.91234 | 37326 ft | 494 kts | 77° |
| 2026-04-14 09:04 | 41.30600 | 42.00226 | 37324 ft | 494 kts | 77° |
| 2026-04-14 09:04 | 41.31768 | 42.09212 | 37311 ft | 493 kts | 77° |
| 2026-04-14 09:05 | 41.32923 | 42.18214 | 37314 ft | 493 kts | 78° |
| 2026-04-14 09:05 | 41.34061 | 42.27204 | 37313 ft | 493 kts | 78° |
| 2026-04-14 09:06 | 41.35198 | 42.36207 | 37301 ft | 493 kts | 78° |
| 2026-04-14 09:06 | 41.36334 | 42.45243 | 36954 ft | 495 kts | 78° |
| 2026-04-14 09:07 | 41.36900 | 42.49767 | 36708 ft | 496 kts | 78° |
| 2026-04-14 09:07 | 41.37462 | 42.54298 | 36458 ft | 497 kts | 78° |
| 2026-04-14 09:07 | 41.38023 | 42.58842 | 36203 ft | 497 kts | 78° |
| 2026-04-14 09:07 | 41.38583 | 42.63379 | 35958 ft | 497 kts | 78° |
| 2026-04-14 09:08 | 41.39144 | 42.67922 | 35712 ft | 496 kts | 77° |
| 2026-04-14 09:08 | 41.39704 | 42.72445 | 35443 ft | 494 kts | 77° |
| 2026-04-14 09:08 | 41.40260 | 42.76952 | 34854 ft | 495 kts | 77° |
| 2026-04-14 09:08 | 41.40816 | 42.81482 | 34252 ft | 497 kts | 77° |
| 2026-04-14 09:09 | 41.41375 | 42.86035 | 33589 ft | 498 kts | 77° |
| 2026-04-14 09:09 | 41.41931 | 42.90591 | 33004 ft | 498 kts | 77° |
| 2026-04-14 09:09 | 41.42482 | 42.95134 | 32470 ft | 496 kts | 77° |
| 2026-04-14 09:09 | 41.43021 | 42.99615 | 31922 ft | 496 kts | 77° |
| 2026-04-14 09:10 | 41.43573 | 43.04211 | 31382 ft | 496 kts | 76° |
| 2026-04-14 09:10 | 41.44109 | 43.08684 | 30854 ft | 495 kts | 76° |
| 2026-04-14 09:10 | 41.44649 | 43.13214 | 30335 ft | 494 kts | 76° |
| 2026-04-14 09:10 | 41.45188 | 43.17735 | 29754 ft | 493 kts | 76° |
| 2026-04-14 09:11 | 41.45721 | 43.22240 | 29257 ft | 491 kts | 76° |
| 2026-04-14 09:11 | 41.46248 | 43.26722 | 28758 ft | 488 kts | 77° |
| 2026-04-14 09:11 | 41.46769 | 43.31178 | 28268 ft | 486 kts | 77° |
| 2026-04-14 09:11 | 41.47288 | 43.35618 | 27760 ft | 484 kts | 77° |
| 2026-04-14 09:12 | 41.47804 | 43.40038 | 27257 ft | 482 kts | 77° |
| 2026-04-14 09:12 | 41.48318 | 43.44440 | 26740 ft | 480 kts | 77° |
| 2026-04-14 09:12 | 41.48830 | 43.48829 | 26221 ft | 478 kts | 77° |
| 2026-04-14 09:12 | 41.49337 | 43.53199 | 25811 ft | 474 kts | 77° |
| 2026-04-14 09:13 | 41.49838 | 43.57541 | 25389 ft | 470 kts | 77° |
| 2026-04-14 09:13 | 41.50330 | 43.61829 | 24993 ft | 466 kts | 78° |
| 2026-04-14 09:13 | 41.50817 | 43.66086 | 24596 ft | 463 kts | 78° |
| 2026-04-14 09:13 | 41.51299 | 43.70307 | 24218 ft | 458 kts | 78° |
| 2026-04-14 09:14 | 41.51774 | 43.74497 | 23753 ft | 454 kts | 78° |
| 2026-04-14 09:14 | 41.52241 | 43.78637 | 23279 ft | 449 kts | 78° |
| 2026-04-14 09:14 | 41.52700 | 43.82723 | 22859 ft | 440 kts | 79° |
| 2026-04-14 09:14 | 41.53148 | 43.86717 | 22131 ft | 430 kts | 79° |
| 2026-04-14 09:15 | 41.53583 | 43.90614 | 21476 ft | 419 kts | 79° |
| 2026-04-14 09:15 | 41.54008 | 43.94414 | 20832 ft | 408 kts | 80° |
| 2026-04-14 09:15 | 41.54425 | 43.98108 | 20208 ft | 397 kts | 80° |
| 2026-04-14 09:15 | 41.54830 | 44.01708 | 19608 ft | 387 kts | 81° |
| 2026-04-14 09:16 | 41.55223 | 44.05216 | 19014 ft | 377 kts | 81° |
| 2026-04-14 09:16 | 41.55604 | 44.08631 | 18405 ft | 367 kts | 82° |
| 2026-04-14 09:16 | 41.55972 | 44.11956 | 17848 ft | 356 kts | 82° |
| 2026-04-14 09:16 | 41.56324 | 44.15175 | 17455 ft | 346 kts | 82° |
| 2026-04-14 09:17 | 41.56669 | 44.18351 | 17039 ft | 346 kts | 82° |
| 2026-04-14 09:17 | 41.57000 | 44.21523 | 16635 ft | 344 kts | 85° |
| 2026-04-14 09:17 | 41.56979 | 44.24704 | 16237 ft | 342 kts | 99° |
| 2026-04-14 09:17 | 41.56583 | 44.27824 | 15840 ft | 341 kts | 102° |
| 2026-04-14 09:18 | 41.56171 | 44.30931 | 15454 ft | 340 kts | 102° |
| 2026-04-14 09:18 | 41.55760 | 44.34037 | 15065 ft | 339 kts | 101° |
| 2026-04-14 09:18 | 41.55354 | 44.37128 | 14677 ft | 338 kts | 102° |
| 2026-04-14 09:18 | 41.54952 | 44.40172 | 14297 ft | 337 kts | 101° |
| 2026-04-14 09:19 | 41.54541 | 44.43294 | 13896 ft | 336 kts | 101° |
| 2026-04-14 09:19 | 41.54154 | 44.46260 | 13492 ft | 336 kts | 101° |
| 2026-04-14 09:19 | 41.53755 | 44.49326 | 13117 ft | 334 kts | 101° |
| 2026-04-14 09:19 | 41.53358 | 44.52374 | 12727 ft | 332 kts | 101° |
| 2026-04-14 09:20 | 41.52962 | 44.55400 | 12345 ft | 330 kts | 101° |
| 2026-04-14 09:20 | 41.52563 | 44.58430 | 11840 ft | 332 kts | 101° |
| 2026-04-14 09:20 | 41.52163 | 44.61449 | 11438 ft | 331 kts | 101° |
| 2026-04-14 09:20 | 41.51764 | 44.64453 | 11048 ft | 328 kts | 101° |
| 2026-04-14 09:21 | 41.51367 | 44.67444 | 10653 ft | 327 kts | 101° |
| 2026-04-14 09:21 | 41.50972 | 44.70419 | 10260 ft | 325 kts | 101° |
| 2026-04-14 09:21 | 41.50582 | 44.73335 | 10092 ft | 311 kts | 101° |
| 2026-04-14 09:21 | 41.50205 | 44.76136 | 9550 ft | 304 kts | 101° |
| 2026-04-14 09:22 | 41.49838 | 44.78871 | 9047 ft | 296 kts | 101° |
| 2026-04-14 09:22 | 41.49479 | 44.81533 | 8656 ft | 291 kts | 100° |
| 2026-04-14 09:22 | 41.49120 | 44.84197 | 8267 ft | 293 kts | 101° |
| 2026-04-14 09:22 | 41.48756 | 44.86876 | 7876 ft | 293 kts | 100° |
| 2026-04-14 09:23 | 41.48394 | 44.89525 | 7688 ft | 285 kts | 100° |
| 2026-04-14 09:23 | 41.48044 | 44.92084 | 7565 ft | 276 kts | 100° |
| 2026-04-14 09:23 | 41.47706 | 44.94566 | 7435 ft | 267 kts | 100° |
| 2026-04-14 09:23 | 41.47378 | 44.96974 | 7241 ft | 262 kts | 100° |
| 2026-04-14 09:24 | 41.47052 | 44.99361 | 6915 ft | 262 kts | 100° |
| 2026-04-14 09:24 | 41.46726 | 45.01747 | 6610 ft | 262 kts | 100° |
| 2026-04-14 09:24 | 41.46560 | 45.04141 | 6334 ft | 260 kts | 84° |
| 2026-04-14 09:24 | 41.46970 | 45.06451 | 6087 ft | 254 kts | 64° |
| 2026-04-14 09:25 | 41.47884 | 45.08422 | 5782 ft | 247 kts | 45° |
| 2026-04-14 09:25 | 41.49056 | 45.10079 | 5289 ft | 244 kts | 43° |
| 2026-04-14 09:25 | 41.50200 | 45.11649 | 5120 ft | 225 kts | 35° |
| 2026-04-14 09:25 | 41.51534 | 45.12511 | 5041 ft | 211 kts | 3° |
| 2026-04-14 09:26 | 41.52919 | 45.12342 | 4974 ft | 194 kts | 335° |
| 2026-04-14 09:26 | 41.54013 | 45.11367 | 4788 ft | 189 kts | 316° |
| 2026-04-14 09:26 | 41.54980 | 45.10145 | 4539 ft | 193 kts | 315° |
| 2026-04-14 09:26 | 41.55958 | 45.08912 | 4291 ft | 191 kts | 315° |
| 2026-04-14 09:27 | 41.56897 | 45.07731 | 4026 ft | 181 kts | 315° |
| 2026-04-14 09:27 | 41.57792 | 45.06606 | 3776 ft | 172 kts | 316° |
| 2026-04-14 09:27 | 41.58643 | 45.05534 | 3554 ft | 168 kts | 316° |
| 2026-04-14 09:27 | 41.59487 | 45.04471 | 3329 ft | 164 kts | 316° |
| 2026-04-14 09:28 | 41.60300 | 45.03449 | 3118 ft | 155 kts | 316° |
| 2026-04-14 09:28 | 41.61061 | 45.02491 | 2891 ft | 146 kts | 316° |
| 2026-04-14 09:28 | 41.61772 | 45.01595 | 2705 ft | 134 kts | 316° |
| 2026-04-14 09:28 | 41.62432 | 45.00763 | 2488 ft | 128 kts | 317° |
| 2026-04-14 09:29 | 41.63073 | 44.99959 | 2310 ft | 125 kts | 317° |
| 2026-04-14 09:29 | 41.63696 | 44.99161 | 2127 ft | 124 kts | 316° |
| 2026-04-14 09:29 | 41.64313 | 44.98365 | 1962 ft | 123 kts | 316° |
| 2026-04-14 09:29 | 41.64937 | 44.97584 | 1801 ft | 123 kts | 318° |
| 2026-04-14 09:30 | 41.65502 | 44.96885 | 1658 ft | 122 kts | 318° |
| 2026-04-14 09:30 | 41.66120 | 44.96108 | 1530 ft | 120 kts | 317° |
| 2026-04-14 09:30 | 41.66624 | 44.95478 | 1524 ft | 71 kts | 316° |
| 2026-04-14 09:30 | 41.66786 | 44.95274 | 1525 ft | 19 kts | 316° |
| 2026-04-14 09:31 | 41.66848 | 44.95195 | 1523 ft | 8 kts | 320° |
| 2026-04-14 09:31 | 41.66904 | 44.95205 | 1526 ft | 10 kts | 38° |
| 2026-04-14 09:31 | 41.66965 | 44.95281 | 1521 ft | 14 kts | 44° |
| 2026-04-14 09:31 | 41.67044 | 44.95381 | 1524 ft | 17 kts | 43° |
| 2026-04-14 09:32 | 41.67139 | 44.95504 | 1524 ft | 21 kts | 43° |
| 2026-04-14 09:32 | 41.67211 | 44.95594 | 1525 ft | 9 kts | 43° |
| 2026-04-14 09:32 | 41.67196 | 44.95720 | 1523 ft | 12 kts | 135° |
| 2026-04-14 09:33 | 41.67130 | 44.95809 | 1523 ft | 13 kts | 133° |
| 2026-04-14 09:33 | 41.67082 | 44.95880 | 1524 ft | 9 kts | 129° |
| 2026-04-14 09:33 | 41.67050 | 44.95952 | 1520 ft | 9 kts | 127° |
| 2026-04-14 09:33 | 41.67003 | 44.96022 | 1521 ft | 12 kts | 133° |
| 2026-04-14 09:34 | 41.66943 | 44.96109 | 1524 ft | 12 kts | 132° |
| 2026-04-14 09:34 | 41.66903 | 44.96170 | 1524 ft | 8 kts | 127° |
| 2026-04-14 09:34 | 41.66865 | 44.96228 | 1522 ft | 7 kts | 132° |
| 2026-04-14 09:34 | 41.66845 | 44.96271 | 1523 ft | 5 kts | 92° |
| 2026-04-14 09:35 | 41.66858 | 44.96299 | 1520 ft | 4 kts | 47° |
| 2026-04-14 09:35 | 41.66883 | 44.96328 | 1525 ft | 3 kts | 42° |
| 2026-04-14 09:35 | 41.66895 | 44.96344 | 1521 ft | 2 kts | 43° |
| 2026-04-14 09:35 | 41.66898 | 44.96348 | 1521 ft | 0 kts | 43° |
| 2026-04-14 09:37 | 41.66898 | 44.96347 | 1521 ft | 0 kts | 43° |